Time;durP1;ratioP1;P1;durP2;ratioP2;P2;SDS_P1;SDS_P2;PMS_P1;PMS_P2;Temp;Humidity;BMP_temperature;BMP_pressure;BME280_temperature;BME280_humidity;BME280_pressure;Samples;Min_cycle;Max_cycle;Signal;HPM_P1;HPM_P2
2023/10/06 00:00:40;;;;;;;3.13;2.28;;;19.80;56.80;;;;;;5074771;28;20223;-64
2023/10/06 00:03:10;;;;;;;3.75;2.28;;;19.80;56.80;;;;;;5074552;28;20209;-64
2023/10/06 00:05:38;;;;;;;4.28;1.98;;;19.80;56.80;;;;;;5074149;28;20535;-65
2023/10/06 00:08:15;;;;;;;3.15;2.10;;;19.80;56.80;;;;;;5074068;28;20191;-65
2023/10/06 00:10:46;;;;;;;2.70;1.90;;;19.80;56.80;;;;;;5074422;28;20652;-64
2023/10/06 00:13:18;;;;;;;3.65;2.10;;;19.80;56.80;;;;;;5074199;28;20238;-65
2023/10/06 00:15:49;;;;;;;4.28;2.10;;;19.80;56.80;;;;;;5074448;28;20562;-63
2023/10/06 00:18:19;;;;;;;3.90;1.95;;;19.80;56.80;;;;;;5074361;28;20206;-64
2023/10/06 00:20:48;;;;;;;3.83;2.20;;;19.70;56.70;;;;;;5074666;28;20298;-64
2023/10/06 00:23:21;;;;;;;3.17;2.28;;;19.70;56.70;;;;;;5073895;28;20656;-65
2023/10/06 00:25:51;;;;;;;4.13;2.05;;;19.70;56.70;;;;;;5074056;28;20234;-64
2023/10/06 00:28:21;;;;;;;4.00;2.08;;;19.80;56.80;;;;;;5073571;28;20194;-63
2023/10/06 00:30:55;;;;;;;3.35;2.10;;;19.70;56.70;;;;;;5074147;28;20191;-63
2023/10/06 00:33:26;;;;;;;4.25;2.20;;;19.80;56.80;;;;;;5073761;28;20644;-64
2023/10/06 00:35:53;;;;;;;3.63;2.20;;;19.70;56.70;;;;;;5073593;28;20195;-63
2023/10/06 00:38:22;;;;;;;3.20;1.95;;;19.70;56.70;;;;;;5073998;28;20187;-63
2023/10/06 00:40:52;;;;;;;2.28;1.80;;;19.80;56.70;;;;;;5073792;28;20215;-63
2023/10/06 00:43:34;;;;;;;2.53;1.77;;;19.70;56.70;;;;;;5073711;28;20267;-64
2023/10/06 00:46:06;;;;;;;2.60;1.85;;;19.70;56.70;;;;;;5073840;28;20241;-64
2023/10/06 00:48:35;;;;;;;3.05;1.80;;;19.80;56.80;;;;;;5073492;28;20234;-63
2023/10/06 00:51:05;;;;;;;3.10;1.80;;;19.70;56.70;;;;;;5073537;28;20191;-64
2023/10/06 00:53:35;;;;;;;2.80;1.80;;;19.70;56.70;;;;;;5073417;28;20280;-64
2023/10/06 00:56:10;;;;;;;3.65;2.08;;;19.70;56.70;;;;;;5073589;28;20274;-63
2023/10/06 01:04:24;;;;;;;3.63;2.00;;;19.80;56.70;;;;;;5073038;28;20206;-63
2023/10/06 01:07:00;;;;;;;4.95;2.05;;;19.70;56.70;;;;;;5073178;28;20187;-62
2023/10/06 01:09:33;;;;;;;5.13;2.25;;;19.70;56.60;;;;;;5072824;28;20230;-63
2023/10/06 01:12:04;;;;;;;3.60;2.00;;;19.70;56.60;;;;;;5073133;28;20190;-63
2023/10/06 01:14:35;;;;;;;3.45;1.83;;;19.70;56.60;;;;;;5073380;28;20288;-63
2023/10/06 01:17:14;;;;;;;5.07;1.92;;;19.70;56.60;;;;;;5073100;28;20188;-61
2023/10/06 01:19:48;;;;;;;2.95;1.83;;;19.60;56.60;;;;;;5073033;28;20211;-64
2023/10/06 01:22:24;;;;;;;4.10;1.90;;;19.70;56.60;;;;;;5072791;28;20211;-62
2023/10/06 01:24:59;;;;;;;4.22;1.98;;;19.70;56.60;;;;;;5073231;28;20218;-64
2023/10/06 01:27:27;;;;;;;3.53;1.98;;;19.70;56.60;;;;;;5072323;28;20226;-64
2023/10/06 01:30:17;;;;;;;2.90;1.85;;;19.70;56.60;;;;;;5072532;28;20763;-63
2023/10/06 01:32:44;;;;;;;5.70;2.17;;;19.60;56.50;;;;;;5072741;28;20245;-64
2023/10/06 01:35:13;;;;;;;2.83;1.90;;;19.60;56.50;;;;;;5072776;28;20218;-63
2023/10/06 01:37:43;;;;;;;3.63;2.00;;;19.70;56.60;;;;;;5072538;28;20226;-63
2023/10/06 01:40:34;;;;;;;3.95;2.40;;;19.60;56.50;;;;;;5072642;28;20218;-64
2023/10/06 01:43:09;;;;;;;3.13;1.90;;;19.60;56.50;;;;;;5072376;28;20234;-61
2023/10/06 01:45:43;;;;;;;4.50;2.40;;;19.60;56.40;;;;;;5072830;28;20222;-64
2023/10/06 01:48:23;;;;;;;3.35;2.10;;;19.60;56.40;;;;;;5072715;28;20218;-64
2023/10/06 01:50:54;;;;;;;2.58;1.90;;;19.60;56.40;;;;;;5072452;28;20189;-64
2023/10/06 01:53:25;;;;;;;4.35;2.33;;;19.60;57.10;;;;;;5072253;28;20194;-64
2023/10/06 01:55:54;;;;;;;3.95;2.15;;;19.60;56.40;;;;;;5072449;28;20209;-63
2023/10/06 01:58:24;;;;;;;3.75;1.95;;;19.60;56.40;;;;;;5072150;28;20645;-64
2023/10/06 02:00:51;;;;;;;3.05;1.88;;;19.60;56.40;;;;;;5072264;28;20187;-64
2023/10/06 02:03:21;;;;;;;2.45;1.70;;;19.60;56.40;;;;;;5072065;28;20626;-63
2023/10/06 02:05:48;;;;;;;4.10;1.95;;;19.60;56.30;;;;;;5072103;28;20202;-63
2023/10/06 02:08:33;;;;;;;4.90;2.25;;;19.60;57.00;;;;;;5072282;28;20198;-64
2023/10/06 02:11:01;;;;;;;3.72;2.05;;;19.60;56.30;;;;;;5071836;28;20187;-64
2023/10/06 02:13:29;;;;;;;6.88;2.28;;;19.60;56.30;;;;;;5072619;28;20194;-61
2023/10/06 02:16:06;;;;;;;2.60;1.73;;;19.60;56.30;;;;;;5072348;28;20194;-63
2023/10/06 02:18:53;;;;;;;2.65;1.90;;;19.60;56.20;;;;;;5071667;28;20880;-64
2023/10/06 02:21:24;;;;;;;3.33;1.90;;;19.60;56.20;;;;;;5072056;28;20219;-64
2023/10/06 02:23:54;;;;;;;3.60;1.80;;;19.60;56.30;;;;;;5067795;28;20227;-63
2023/10/06 02:26:25;;;;;;;4.82;2.10;;;19.50;56.20;;;;;;5071766;28;20303;-63
2023/10/06 02:28:54;;;;;;;2.58;1.70;;;19.60;56.20;;;;;;5072106;28;20711;-64
2023/10/06 02:31:21;;;;;;;2.30;1.75;;;19.60;56.20;;;;;;5071770;28;20187;-64
2023/10/06 02:33:50;;;;;;;3.30;2.10;;;19.50;56.10;;;;;;5071656;28;20692;-65
2023/10/06 02:36:21;;;;;;;4.85;2.05;;;19.50;56.10;;;;;;5071817;28;20191;-64
2023/10/06 02:38:50;;;;;;;2.58;1.73;;;19.50;56.10;;;;;;5071651;28;20265;-64
2023/10/06 02:41:21;;;;;;;2.30;1.60;;;19.50;56.10;;;;;;5071359;28;20191;-65
2023/10/06 02:43:50;;;;;;;3.75;1.75;;;19.50;56.10;;;;;;5072113;28;20307;-64
2023/10/06 02:46:20;;;;;;;4.75;2.28;;;19.50;56.10;;;;;;5072018;28;20198;-64
2023/10/06 02:48:52;;;;;;;3.13;1.80;;;19.50;56.10;;;;;;5071406;28;20225;-63
2023/10/06 02:51:28;;;;;;;3.03;1.85;;;19.50;56.00;;;;;;5071660;28;20660;-63
2023/10/06 02:54:09;;;;;;;3.25;2.10;;;19.50;56.00;;;;;;5071755;28;20250;-62
2023/10/06 02:56:40;;;;;;;2.95;1.90;;;19.50;56.00;;;;;;5071749;28;20189;-64
2023/10/06 02:59:20;;;;;;;3.25;2.13;;;19.60;56.10;;;;;;5071513;28;20219;-64
2023/10/06 03:01:52;;;;;;;2.85;1.90;;;19.50;56.00;;;;;;5071904;28;20221;-64
2023/10/06 03:04:25;;;;;;;4.72;1.92;;;19.50;56.00;;;;;;5071727;28;20230;-63
2023/10/06 03:06:57;;;;;;;2.85;2.00;;;19.50;56.00;;;;;;5071460;28;20227;-63
2023/10/06 03:09:38;;;;;;;3.40;1.65;;;19.50;56.00;;;;;;5071464;28;20211;-63
2023/10/06 03:12:13;;;;;;;3.20;2.30;;;19.50;56.00;;;;;;5071251;28;20240;-63
2023/10/06 03:14:42;;;;;;;2.75;2.00;;;19.50;56.00;;;;;;5071785;28;20211;-63
2023/10/06 03:17:11;;;;;;;2.85;1.80;;;19.50;56.00;;;;;;5071613;28;20195;-64
2023/10/06 03:19:40;;;;;;;3.13;2.10;;;19.50;56.00;;;;;;5069753;28;20225;-63
2023/10/06 03:22:09;;;;;;;2.92;1.88;;;19.50;56.00;;;;;;5071122;28;20211;-64
2023/10/06 03:24:45;;;;;;;4.28;2.22;;;19.50;56.00;;;;;;5071577;28;20214;-65
2023/10/06 03:27:15;;;;;;;3.10;1.75;;;19.50;56.00;;;;;;5071095;28;20239;-63
2023/10/06 03:29:51;;;;;;;3.67;1.80;;;19.50;56.60;;;;;;5071253;28;20591;-63
2023/10/06 03:35:21;;;;;;;3.00;1.85;;;19.50;56.00;;;;;;5074789;28;20264;-63
2023/10/06 03:41:07;;;;;;;3.83;2.00;;;19.50;55.90;;;;;;5013601;28;20212;-60
2023/10/06 03:43:40;;;;;;;3.47;1.80;;;19.50;56.00;;;;;;5074558;28;20226;-64
2023/10/06 03:46:09;;;;;;;4.07;1.98;;;19.50;56.00;;;;;;5074589;28;20202;-65
2023/10/06 03:48:38;;;;;;;4.13;2.20;;;19.50;56.60;;;;;;5074246;28;20232;-64
2023/10/06 03:51:06;;;;;;;2.58;1.88;;;19.40;55.90;;;;;;5074495;28;20278;-64
2023/10/06 03:53:33;;;;;;;3.78;2.15;;;19.50;56.00;;;;;;5074716;28;20197;-63
2023/10/06 03:56:03;;;;;;;3.38;1.88;;;19.40;55.80;;;;;;5074312;28;20641;-64
2023/10/06 03:58:31;;;;;;;2.72;2.13;;;19.50;56.00;;;;;;5074343;28;20221;-64
2023/10/06 04:01:07;;;;;;;4.32;2.13;;;19.50;55.90;;;;;;5074628;28;20191;-63
2023/10/06 04:03:35;;;;;;;3.00;2.20;;;19.40;55.90;;;;;;5073968;28;20719;-64
2023/10/06 04:06:04;;;;;;;3.58;2.40;;;19.50;56.00;;;;;;5074674;28;20199;-64
2023/10/06 04:08:31;;;;;;;4.18;2.20;;;19.50;56.00;;;;;;5074110;28;20195;-64
2023/10/06 04:10:59;;;;;;;3.08;1.92;;;19.50;55.90;;;;;;5074318;28;20187;-64
2023/10/06 04:13:27;;;;;;;3.45;1.90;;;19.50;55.90;;;;;;5074150;28;20191;-65
2023/10/06 04:15:57;;;;;;;2.95;1.90;;;19.40;55.80;;;;;;5074420;28;20215;-65
2023/10/06 04:18:26;;;;;;;2.85;1.90;;;19.40;55.80;;;;;;5073791;28;20567;-63
2023/10/06 04:20:55;;;;;;;3.92;1.90;;;19.40;55.80;;;;;;5074232;28;20226;-63
2023/10/06 04:23:23;;;;;;;2.58;1.77;;;19.40;55.80;;;;;;5074226;28;20214;-65
2023/10/06 04:25:54;;;;;;;2.63;1.83;;;19.40;55.90;;;;;;5073912;28;20262;-63
2023/10/06 04:28:25;;;;;;;3.53;1.90;;;19.40;55.80;;;;;;5074145;28;20558;-65
2023/10/06 04:30:54;;;;;;;3.45;2.05;;;19.40;55.80;;;;;;5074207;28;20219;-64
2023/10/06 04:33:25;;;;;;;3.63;2.25;;;19.40;55.80;;;;;;5073637;28;20726;-64
2023/10/06 04:35:55;;;;;;;3.72;2.08;;;19.40;55.90;;;;;;5062044;28;20783;-65
2023/10/06 04:38:23;;;;;;;3.45;2.05;;;19.40;55.80;;;;;;5053909;28;20183;-63
2023/10/06 04:40:51;;;;;;;2.80;1.67;;;19.40;55.80;;;;;;5053950;28;20223;-65
2023/10/06 04:43:18;;;;;;;3.33;2.10;;;19.40;55.80;;;;;;5053676;28;20265;-65
2023/10/06 04:45:47;;;;;;;5.47;2.33;;;19.40;55.80;;;;;;5052841;28;20227;-64
2023/10/06 04:48:15;;;;;;;2.30;1.85;;;19.40;55.80;;;;;;5053286;28;20657;-64
2023/10/06 04:50:43;;;;;;;3.45;2.10;;;19.40;55.80;;;;;;5053953;28;20226;-63
2023/10/06 04:56:43;;;;;;;3.15;1.80;;;19.40;55.80;;;;;;4952869;29;20203;-64
2023/10/06 04:59:11;;;;;;;5.13;1.90;;;19.40;55.80;;;;;;4943963;28;20221;-64
2023/10/06 05:01:39;;;;;;;3.42;2.03;;;19.30;55.80;;;;;;4991678;28;20252;-64
2023/10/06 05:04:08;;;;;;;3.35;1.70;;;19.40;55.90;;;;;;4991565;28;20233;-64
2023/10/06 05:06:35;;;;;;;6.28;2.05;;;19.40;55.80;;;;;;4991636;28;20202;-63
2023/10/06 05:09:06;;;;;;;3.58;2.17;;;19.40;55.90;;;;;;4991200;28;20230;-64
2023/10/06 05:11:34;;;;;;;3.58;1.95;;;19.40;56.50;;;;;;4991617;28;20190;-64
2023/10/06 05:14:01;;;;;;;2.42;1.75;;;19.30;55.80;;;;;;4991557;28;20194;-64
2023/10/06 05:16:34;;;;;;;5.40;2.30;;;19.40;55.90;;;;;;4991225;28;20201;-63
2023/10/06 05:19:03;;;;;;;5.43;1.98;;;19.40;55.90;;;;;;4991138;28;20262;-63
2023/10/06 05:21:31;;;;;;;3.13;1.90;;;19.40;55.90;;;;;;4991436;28;20190;-64
2023/10/06 05:24:01;;;;;;;4.13;2.13;;;19.40;55.90;;;;;;4990929;28;20313;-64
2023/10/06 05:26:34;;;;;;;3.72;2.47;;;19.40;55.90;;;;;;5002219;28;20229;-64
2023/10/06 05:29:13;;;;;;;;;;;;;;;;;;;;;
2023/10/06 05:31:49;;;;;;;3.28;2.10;;;19.30;55.70;;;;;;4946068;28;20205;-64
2023/10/06 05:34:21;;;;;;;3.75;1.90;;;19.30;55.80;;;;;;5031990;28;20310;-63
2023/10/06 05:36:50;;;;;;;3.03;1.90;;;19.40;55.90;;;;;;5015106;28;20293;-64
2023/10/06 05:39:20;;;;;;;4.28;2.30;;;19.40;55.80;;;;;;5032216;28;20224;-62
2023/10/06 05:41:49;;;;;;;2.55;1.80;;;19.30;55.80;;;;;;5032543;28;20211;-62
2023/10/06 05:44:17;;;;;;;3.78;1.55;;;19.30;55.80;;;;;;5032408;28;20235;-63
2023/10/06 05:46:45;;;;;;;5.25;2.40;;;19.30;55.80;;;;;;5032598;28;20208;-63
2023/10/06 05:51:54;;;;;;;4.60;2.20;;;19.30;55.80;;;;;;5032335;28;20298;-64
2023/10/06 05:54:22;;;;;;;3.13;1.80;;;19.30;55.70;;;;;;5032477;28;20220;-64
2023/10/06 05:56:53;;;;;;;3.35;1.98;;;19.30;55.70;;;;;;5032336;28;20191;-64
2023/10/06 05:59:21;;;;;;;2.70;2.00;;;19.30;55.70;;;;;;5032547;28;20216;-64
2023/10/06 06:01:56;;;;;;;3.10;1.98;;;19.30;55.70;;;;;;5032100;28;20278;-62
2023/10/06 06:04:34;;;;;;;4.07;1.77;;;19.30;55.70;;;;;;5032361;28;20235;-64
2023/10/06 06:07:03;;;;;;;3.63;2.30;;;19.30;55.70;;;;;;5032373;28;20263;-63
2023/10/06 06:09:33;;;;;;;3.10;2.10;;;19.30;55.70;;;;;;5049569;28;20810;-63
2023/10/06 06:12:21;;;;;;;3.25;2.10;;;19.30;55.70;;;;;;5052065;28;20669;-64
2023/10/06 06:18:04;;;;;;;2.92;2.03;;;19.30;55.70;;;;;;5046733;28;20211;-64
2023/10/06 06:27:37;;;;;;;2.35;1.63;;;19.40;55.80;;;;;;5040305;28;20687;-63
2023/10/06 06:30:06;;;;;;;3.40;2.10;;;19.40;55.80;;;;;;5071395;28;20218;-63
2023/10/06 06:32:49;;;;;;;3.75;2.05;;;19.40;55.70;;;;;;5068918;28;20190;-63
2023/10/06 06:35:24;;;;;;;4.03;1.90;;;19.40;55.70;;;;;;5069855;28;20219;-63
2023/10/06 06:37:59;;;;;;;2.13;1.40;;;19.50;55.70;;;;;;5071613;28;20194;-64
2023/10/06 06:40:28;;;;;;;3.85;2.10;;;19.50;55.70;;;;;;5052237;28;20218;-63
2023/10/06 06:42:57;;;;;;;2.72;2.08;;;19.50;55.60;;;;;;5052012;28;20223;-62
2023/10/06 06:45:28;;;;;;;3.05;1.83;;;19.50;55.60;;;;;;5067306;28;20288;-64
2023/10/06 06:48:02;;;;;;;2.13;1.70;;;19.50;55.50;;;;;;5056351;28;20256;-63
2023/10/06 06:57:19;;;;;;;2.75;1.73;;;19.60;55.30;;;;;;5027165;28;20211;-66
2023/10/06 06:59:56;;;;;;;2.50;1.77;;;19.60;55.30;;;;;;5056856;28;20222;-66
2023/10/06 07:02:26;;;;;;;3.22;1.95;;;19.60;55.50;;;;;;5054255;28;20331;-65
2023/10/06 07:07:51;;;;;;;2.95;1.80;;;19.60;56.20;;;;;;5054545;28;20287;-65
2023/10/06 07:10:46;;;;;;;3.42;1.67;;;19.60;55.40;;;;;;5059040;28;20254;-65
2023/10/06 07:13:24;;;;;;;2.50;1.70;;;19.70;55.40;;;;;;5056324;28;20199;-65
2023/10/06 07:15:53;;;;;;;2.92;1.73;;;19.70;55.40;;;;;;4994389;28;20227;-65
2023/10/06 07:18:25;;;;;;;2.33;1.60;;;19.70;55.40;;;;;;5063127;28;20207;-65
2023/10/06 07:24:04;;;;;;;4.10;1.80;;;19.70;55.30;;;;;;5054071;28;20229;-65
2023/10/06 07:26:56;;;;;;;2.03;1.63;;;19.70;55.30;;;;;;5036235;28;20317;-65
2023/10/06 07:32:19;;;;;;;2.72;1.38;;;19.70;55.30;;;;;;5056311;28;20210;-65
2023/10/06 07:34:47;;;;;;;3.55;1.80;;;19.70;55.30;;;;;;5050644;28;20273;-65
2023/10/06 07:37:17;;;;;;;2.17;1.60;;;19.70;55.40;;;;;;5067806;28;20263;-65
2023/10/06 07:39:46;;;;;;;2.72;1.85;;;19.70;55.30;;;;;;5059112;28;20233;-64
2023/10/06 07:42:16;;;;;;;3.10;1.90;;;19.70;55.30;;;;;;5061686;28;20218;-65
2023/10/06 07:47:31;;;;;;;5.22;1.88;;;19.70;55.30;;;;;;5058450;28;20233;-65
2023/10/06 07:50:37;;;;;;;4.43;1.67;;;19.70;55.30;;;;;;5061351;28;20897;-64
2023/10/06 07:53:07;;;;;;;4.03;1.60;;;19.70;55.30;;;;;;5062905;28;20223;-65
2023/10/06 07:55:34;;;;;;;3.55;1.90;;;19.80;55.40;;;;;;5062133;28;20329;-65
2023/10/06 07:58:03;;;;;;;6.65;1.73;;;19.80;56.10;;;;;;5055916;28;20305;-65
2023/10/06 08:00:30;;;;;;;4.38;1.98;;;19.80;55.40;;;;;;5052799;28;20237;-64
2023/10/06 08:03:00;;;;;;;2.50;1.88;;;19.80;55.40;;;;;;5069798;28;20268;-64
2023/10/06 08:05:29;;;;;;;3.42;1.73;;;19.80;55.40;;;;;;5062618;28;20656;-65
2023/10/06 08:08:04;;;;;;;2.28;1.77;;;19.80;55.50;;;;;;5061092;28;20253;-63
2023/10/06 08:10:34;;;;;;;3.65;1.60;;;19.80;55.40;;;;;;5068735;28;20276;-65
2023/10/06 08:13:10;;;;;;;3.97;1.60;;;19.90;55.60;;;;;;5054974;28;20230;-65
2023/10/06 08:15:40;;;;;;;2.30;1.65;;;19.80;55.40;;;;;;5053738;28;20266;-65
2023/10/06 08:18:09;;;;;;;2.90;1.75;;;19.80;55.40;;;;;;5062256;28;20751;-65
2023/10/06 08:20:40;;;;;;;2.88;1.42;;;19.80;55.40;;;;;;5073118;28;20191;-65
2023/10/06 08:23:08;;;;;;;4.70;1.70;;;19.80;55.50;;;;;;5073197;28;20214;-65
2023/10/06 08:25:35;;;;;;;5.40;1.80;;;19.90;55.60;;;;;;5073416;28;20193;-65
2023/10/06 08:28:04;;;;;;;1.75;1.50;;;19.90;55.60;;;;;;5072408;28;20756;-65
2023/10/06 08:30:33;;;;;;;3.00;1.55;;;19.90;55.50;;;;;;5073287;28;20668;-65
2023/10/06 08:33:02;;;;;;;4.63;1.80;;;19.90;55.60;;;;;;5073344;28;20219;-65
2023/10/06 08:38:58;;;;;;;2.50;1.70;;;19.90;55.50;;;;;;5049411;28;20268;-65
2023/10/06 08:41:36;;;;;;;2.30;1.60;;;19.90;55.60;;;;;;5052065;28;20201;-65
2023/10/06 08:44:04;;;;;;;3.33;1.60;;;19.90;55.60;;;;;;5052963;28;20264;-65
2023/10/06 08:46:34;;;;;;;1.90;1.48;;;19.90;55.60;;;;;;5053299;28;20196;-66
2023/10/06 08:49:02;;;;;;;5.10;1.48;;;19.90;55.60;;;;;;5051189;28;20231;-65
2023/10/06 08:51:36;;;;;;;4.57;1.63;;;19.90;55.60;;;;;;5053698;28;20215;-67
2023/10/06 08:54:13;;;;;;;2.53;1.33;;;19.90;55.60;;;;;;5068395;28;20252;-65
2023/10/06 08:57:03;;;;;;;2.50;1.52;;;20.00;55.60;;;;;;5071837;28;20215;-65
2023/10/06 08:59:32;;;;;;;3.47;1.70;;;19.90;55.60;;;;;;5072742;28;20245;-65
2023/10/06 09:02:01;;;;;;;3.03;1.50;;;19.90;55.60;;;;;;5072964;28;20210;-65
2023/10/06 09:04:38;;;;;;;2.53;1.58;;;19.90;55.70;;;;;;5072454;28;20309;-65
2023/10/06 09:07:13;;;;;;;6.68;2.00;;;19.90;55.90;;;;;;5070915;28;20741;-64
2023/10/06 09:09:43;;;;;;;5.13;1.63;;;19.90;56.20;;;;;;5072443;28;20274;-62
2023/10/06 09:12:22;;;;;;;2.97;1.98;;;19.90;56.30;;;;;;5071267;28;20219;-63
2023/10/06 09:14:54;;;;;;;4.03;1.80;;;19.90;56.50;;;;;;5072429;28;20187;-64
2023/10/06 09:20:31;;;;;;;3.05;1.63;;;20.00;56.60;;;;;;5072235;28;20182;-64
2023/10/06 09:23:00;;;;;;;3.10;2.00;;;20.00;56.60;;;;;;5072065;28;20222;-64
2023/10/06 09:25:40;;;;;;;3.20;1.77;;;20.00;56.70;;;;;;5070369;28;20246;-64
2023/10/06 09:28:13;;;;;;;4.13;1.92;;;20.00;56.80;;;;;;5072327;28;20214;-64
2023/10/06 09:31:08;;;;;;;3.50;2.10;;;20.00;56.90;;;;;;5071793;28;20183;-64
2023/10/06 09:33:44;;;;;;;4.15;1.90;;;20.00;56.90;;;;;;5072191;28;20233;-64
2023/10/06 09:36:17;;;;;;;3.13;1.80;;;20.00;57.00;;;;;;5072019;28;20256;-65
2023/10/06 09:38:45;;;;;;;6.38;2.08;;;20.00;57.00;;;;;;5070914;28;20222;-64
2023/10/06 09:41:25;;;;;;;3.35;2.20;;;20.00;57.10;;;;;;5071145;28;20198;-64
2023/10/06 09:43:54;;;;;;;3.33;2.20;;;20.00;57.10;;;;;;5061283;28;20241;-64
2023/10/06 09:46:24;;;;;;;3.58;1.92;;;20.00;57.10;;;;;;5069600;28;20198;-65
2023/10/06 09:48:53;;;;;;;3.28;2.00;;;20.00;57.40;;;;;;5071881;28;20218;-64
2023/10/06 09:51:25;;;;;;;3.15;1.95;;;20.00;57.60;;;;;;5071281;28;20193;-63
2023/10/06 09:53:53;;;;;;;7.80;1.90;;;20.10;57.90;;;;;;5071799;28;20265;-64
2023/10/06 09:56:23;;;;;;;6.13;2.20;;;20.10;57.80;;;;;;5071027;28;20193;-64
2023/10/06 09:58:51;;;;;;;3.97;2.33;;;20.10;58.00;;;;;;5069033;28;20224;-64
2023/10/06 10:01:22;;;;;;;8.80;2.30;;;20.20;58.10;;;;;;5071185;28;20182;-64
2023/10/06 10:04:12;;;;;;;3.70;2.22;;;20.20;58.00;;;;;;5071354;28;20236;-64
2023/10/06 10:06:43;;;;;;;4.82;2.10;;;20.20;58.00;;;;;;5071049;28;20228;-64
2023/10/06 10:09:15;;;;;;;7.38;2.03;;;20.20;58.00;;;;;;5069677;28;20197;-63
2023/10/06 10:11:48;;;;;;;5.78;2.30;;;20.20;58.00;;;;;;5063614;28;20293;-64
2023/10/06 10:14:49;;;;;;;8.77;2.00;;;20.30;58.00;;;;;;5066098;28;20202;-64
2023/10/06 10:17:29;;;;;;;4.55;2.13;;;20.20;57.80;;;;;;5070810;28;20571;-64
2023/10/06 10:19:58;;;;;;;3.10;2.00;;;20.20;57.80;;;;;;5069541;28;20240;-65
2023/10/06 10:22:32;;;;;;;4.78;1.90;;;20.20;57.70;;;;;;5071289;28;20226;-63
2023/10/06 10:25:01;;;;;;;4.40;2.10;;;20.20;57.70;;;;;;5070868;28;20587;-64
2023/10/06 10:27:30;;;;;;;4.00;1.98;;;20.20;57.60;;;;;;5067832;28;20230;-64
2023/10/06 10:29:57;;;;;;;7.07;2.15;;;20.20;57.60;;;;;;5070564;28;20293;-64
2023/10/06 10:32:25;;;;;;;7.00;2.13;;;20.30;57.70;;;;;;5071025;28;20329;-64
2023/10/06 10:35:16;;;;;;;12.98;2.13;;;20.30;57.60;;;;;;5071124;28;20263;-65
2023/10/06 10:37:55;;;;;;;3.33;1.90;;;20.30;57.70;;;;;;5071283;28;20218;-64
2023/10/06 10:40:25;;;;;;;4.13;2.00;;;20.30;57.70;;;;;;5068614;28;20301;-65
2023/10/06 10:42:57;;;;;;;3.53;2.00;;;20.30;57.70;;;;;;5068359;28;20222;-64
2023/10/06 10:45:36;;;;;;;15.32;2.33;;;20.30;57.70;;;;;;5070159;28;20219;-64
2023/10/06 10:48:13;;;;;;;3.20;2.20;;;20.30;57.70;;;;;;5075025;28;20222;-63
2023/10/06 10:51:11;;;;;;;4.60;1.90;;;20.30;57.70;;;;;;5074796;28;20233;-65
2023/10/06 10:53:41;;;;;;;4.05;1.83;;;20.30;57.70;;;;;;5055514;28;20218;-64
2023/10/06 10:56:13;;;;;;;3.42;1.90;;;20.30;57.70;;;;;;5073110;28;20286;-65
2023/10/06 10:58:58;;;;;;;2.97;1.90;;;20.30;57.70;;;;;;5066823;28;20762;-64
2023/10/06 11:01:29;;;;;;;4.10;1.98;;;20.30;57.80;;;;;;5075192;28;20285;-65
2023/10/06 11:04:18;;;;;;;3.80;1.98;;;20.30;57.70;;;;;;5063275;28;20232;-64
2023/10/06 11:06:46;;;;;;;2.78;1.90;;;20.30;57.70;;;;;;5071640;28;20234;-65
2023/10/06 11:09:25;;;;;;;3.17;1.80;;;20.30;57.80;;;;;;5071126;28;21019;-64
2023/10/06 11:11:55;;;;;;;3.35;1.80;;;20.30;57.80;;;;;;5073117;28;20194;-64
2023/10/06 11:14:26;;;;;;;5.40;1.83;;;20.30;57.90;;;;;;5073692;28;20218;-62
2023/10/06 11:16:59;;;;;;;7.93;2.25;;;20.30;57.90;;;;;;5073043;28;20229;-63
2023/10/06 11:22:37;;;;;;;3.20;1.90;;;20.20;57.80;;;;;;5072169;28;20352;-64
2023/10/06 11:25:10;;;;;;;3.67;1.83;;;20.30;57.90;;;;;;5057504;28;20653;-64
2023/10/06 11:27:39;;;;;;;3.67;2.10;;;20.30;57.90;;;;;;5072311;28;20238;-65
2023/10/06 11:30:14;;;;;;;3.42;1.90;;;20.30;57.90;;;;;;5072903;28;20203;-64
2023/10/06 11:32:42;;;;;;;3.58;1.90;;;20.30;57.90;;;;;;5073543;28;20222;-64
2023/10/06 11:35:12;;;;;;;6.10;1.98;;;20.30;57.90;;;;;;5073101;28;20198;-64
2023/10/06 11:37:41;;;;;;;3.33;1.80;;;20.30;57.80;;;;;;5072251;28;20215;-64
2023/10/06 11:40:12;;;;;;;4.82;2.25;;;20.40;58.00;;;;;;5073969;28;20199;-64
2023/10/06 11:42:41;;;;;;;2.55;1.92;;;20.40;58.00;;;;;;5071731;28;20627;-64
2023/10/06 11:45:27;;;;;;;3.17;1.80;;;20.40;58.00;;;;;;5073153;28;20301;-65
2023/10/06 11:47:55;;;;;;;2.90;1.95;;;20.40;58.60;;;;;;5073735;28;20226;-63
2023/10/06 11:50:28;;;;;;;3.05;1.50;;;20.40;57.90;;;;;;5072473;28;20264;-64
2023/10/06 11:52:56;;;;;;;3.83;1.85;;;20.40;57.90;;;;;;5073847;28;20256;-64
2023/10/06 11:55:31;;;;;;;2.90;1.58;;;20.40;57.80;;;;;;5073446;28;20191;-64
2023/10/06 11:58:04;;;;;;;6.03;1.92;;;20.40;58.00;;;;;;5071725;28;20305;-64
2023/10/06 12:00:45;;;;;;;3.30;2.10;;;20.40;58.00;;;;;;5066690;28;20195;-61
2023/10/06 12:03:16;;;;;;;4.22;2.00;;;20.50;58.10;;;;;;5069359;28;20265;-65
2023/10/06 12:05:55;;;;;;;6.30;2.58;;;20.50;58.00;;;;;;5067972;28;20207;-64
2023/10/06 12:08:22;;;;;;;7.07;2.40;;;20.50;57.90;;;;;;5072817;28;20280;-64
2023/10/06 12:10:52;;;;;;;5.10;2.00;;;20.50;57.90;;;;;;5072770;28;20194;-64
2023/10/06 12:13:19;;;;;;;3.50;2.20;;;20.50;58.00;;;;;;5072792;28;20222;-62
2023/10/06 12:15:48;;;;;;;6.65;2.10;;;20.50;57.90;;;;;;5073717;28;20203;-65
2023/10/06 12:18:16;;;;;;;3.45;1.80;;;20.50;57.80;;;;;;5068768;28;20214;-65
2023/10/06 12:20:43;;;;;;;7.18;2.10;;;20.50;57.90;;;;;;5065300;28;20625;-65
2023/10/06 12:23:11;;;;;;;11.23;2.20;;;20.50;58.10;;;;;;5054852;28;20736;-65
2023/10/06 12:25:39;;;;;;;3.83;1.77;;;20.50;58.30;;;;;;5055297;28;20211;-64
2023/10/06 12:28:06;;;;;;;6.00;2.03;;;20.50;58.50;;;;;;5067277;28;20298;-65
2023/10/06 12:30:33;;;;;;;3.83;1.63;;;20.50;58.40;;;;;;5071908;28;20207;-65
2023/10/06 12:33:02;;;;;;;3.47;1.80;;;20.50;58.50;;;;;;5065925;28;20309;-65
2023/10/06 12:35:30;;;;;;;7.35;2.13;;;20.60;58.60;;;;;;5059672;28;20272;-65
2023/10/06 12:37:57;;;;;;;6.05;2.03;;;20.60;58.70;;;;;;5065634;28;20223;-65
2023/10/06 12:40:41;;;;;;;7.22;2.28;;;20.60;58.80;;;;;;5059492;28;20195;-61
2023/10/06 12:43:19;;;;;;;7.65;2.33;;;20.60;58.70;;;;;;5056959;28;20230;-64
2023/10/06 12:46:20;;;;;;;15.73;2.30;;;20.60;58.80;;;;;;4999741;28;20674;-64
2023/10/06 12:49:08;;;;;;;9.98;2.50;;;20.60;59.10;;;;;;5067055;28;21320;-59
2023/10/06 12:51:35;;;;;;;9.50;2.72;;;20.60;58.90;;;;;;5071083;28;20222;-64
2023/10/06 12:56:53;;;;;;;7.53;2.58;;;20.70;58.80;;;;;;5058999;28;20218;-64
2023/10/06 12:59:20;;;;;;;20.40;2.28;;;20.70;58.60;;;;;;5066862;28;20227;-59
2023/10/06 13:01:49;;;;;;;5.75;2.50;;;20.70;58.60;;;;;;5067464;28;20195;-61
2023/10/06 13:04:18;;;;;;;8.18;3.22;;;20.70;58.90;;;;;;5069345;28;20737;-63
2023/10/06 13:06:59;;;;;;;15.52;9.50;;;20.60;58.50;;;;;;5066139;28;20205;-62
2023/10/06 13:09:34;;;;;;;16.05;8.60;;;20.70;58.50;;;;;;5068980;28;20233;-61
2023/10/06 13:12:04;;;;;;;10.60;8.20;;;20.70;58.80;;;;;;5068918;28;20186;-61
2023/10/06 13:17:12;;;;;;;7.93;6.47;;;20.70;58.50;;;;;;5004404;28;20213;-62
2023/10/06 13:19:50;;;;;;;7.22;6.05;;;20.70;58.50;;;;;;5010049;28;20220;-62
2023/10/06 13:22:20;;;;;;;7.75;5.80;;;20.70;58.50;;;;;;5067945;28;20213;-62
2023/10/06 13:24:50;;;;;;;9.73;5.95;;;20.70;58.60;;;;;;5065572;28;20888;-61
2023/10/06 13:27:48;;;;;;;10.13;5.30;;;20.80;58.70;;;;;;5064322;28;20230;-55
2023/10/06 13:30:20;;;;;;;17.42;13.02;;;20.80;58.60;;;;;;5050508;28;20268;-61
2023/10/06 13:33:01;;;;;;;;;;;;;;;;;;;;;
2023/10/06 13:35:30;;;;;;;44.28;39.60;;;20.80;58.60;;;;;;4997362;28;20223;-62
2023/10/06 13:37:58;;;;;;;59.65;53.08;;;20.80;58.60;;;;;;5062052;28;20199;-62
2023/10/06 13:40:29;;;;;;;85.68;76.72;;;20.90;58.70;;;;;;5064256;28;20219;-62
2023/10/06 13:43:01;;;;;;;89.85;79.97;;;20.90;58.60;;;;;;5065981;28;20217;-62
2023/10/06 13:48:34;;;;;;;130.35;116.97;;;20.90;58.60;;;;;;5019959;28;20224;-61
2023/10/06 13:51:03;;;;;;;141.63;126.25;;;21.00;58.70;;;;;;5015032;28;20219;-61
2023/10/06 13:53:45;;;;;;;120.07;107.32;;;21.00;58.70;;;;;;5065369;28;20708;-62
2023/10/06 14:00:11;;;;;;;26.75;21.38;;;21.00;57.70;;;;;;5058203;28;20622;-62
2023/10/06 14:02:51;;;;;;;22.27;16.02;;;20.90;57.30;;;;;;5061030;28;20203;-62
2023/10/06 14:08:06;;;;;;;18.90;14.65;;;20.80;57.80;;;;;;5064705;28;20335;-64
2023/10/06 14:10:35;;;;;;;27.60;22.88;;;20.80;57.80;;;;;;5060659;28;20223;-61
2023/10/06 14:13:08;;;;;;;24.75;20.15;;;20.80;57.80;;;;;;5071406;28;20418;-63
2023/10/06 14:15:44;;;;;;;32.65;28.45;;;20.80;57.60;;;;;;5061477;28;20475;-62
2023/10/06 14:18:16;;;;;;;31.38;22.75;;;20.80;57.80;;;;;;5058700;28;20226;-60
2023/10/06 14:20:45;;;;;;;23.52;18.55;;;20.80;57.80;;;;;;5059627;28;20219;-65
2023/10/06 14:24:04;;;;;;;38.47;30.17;;;20.80;57.70;;;;;;5061112;28;20695;-62
2023/10/06 14:26:35;;;;;;;33.45;28.67;;;20.80;57.80;;;;;;5046867;28;20287;-61